sensor_id;sensor_type;location;lat;lon;timestamp;pressure;altitude;pressure_sealevel;temperature;humidity
41843;BME280;74160;52.530;13.188;2024-03-22T00:00:29;101713.31;;;19.17;56.90
41843;BME280;74160;52.530;13.188;2024-03-22T00:02:54;101702.72;;;19.26;56.70
41843;BME280;74160;52.530;13.188;2024-03-22T00:05:19;101702.66;;;19.17;56.74
41843;BME280;74160;52.530;13.188;2024-03-22T00:07:46;101698.06;;;19.28;56.55
41843;BME280;74160;52.530;13.188;2024-03-22T00:10:11;101699.72;;;19.29;56.58
41843;BME280;74160;52.530;13.188;2024-03-22T00:12:38;101702.38;;;19.29;56.57
41843;BME280;74160;52.530;13.188;2024-03-22T00:15:03;101698.00;;;19.19;56.87
41843;BME280;74160;52.530;13.188;2024-03-22T00:17:28;101699.34;;;19.24;56.62
41843;BME280;74160;52.530;13.188;2024-03-22T00:19:55;101688.03;;;19.21;56.72
41843;BME280;74160;52.530;13.188;2024-03-22T00:22:20;101684.53;;;19.21;56.80
41843;BME280;74160;52.530;13.188;2024-03-22T00:24:46;101680.03;;;19.21;56.71
41843;BME280;74160;52.530;13.188;2024-03-22T00:27:11;101674.16;;;19.18;56.90
41843;BME280;74160;52.530;13.188;2024-03-22T00:29:37;101672.50;;;19.17;56.90
41843;BME280;74160;52.530;13.188;2024-03-22T00:32:03;101677.84;;;19.17;56.89
41843;BME280;74160;52.530;13.188;2024-03-22T00:34:28;101673.88;;;19.21;56.75
41843;BME280;74160;52.530;13.188;2024-03-22T00:36:53;101668.88;;;19.26;56.58
41843;BME280;74160;52.530;13.188;2024-03-22T00:39:18;101664.50;;;19.17;56.88
41843;BME280;74160;52.530;13.188;2024-03-22T00:41:43;101660.69;;;19.19;56.80
41843;BME280;74160;52.530;13.188;2024-03-22T00:44:09;101658.56;;;19.23;56.73
41843;BME280;74160;52.530;13.188;2024-03-22T00:46:34;101654.41;;;19.29;56.53
41843;BME280;74160;52.530;13.188;2024-03-22T00:49:00;101656.38;;;19.27;56.61
41843;BME280;74160;52.530;13.188;2024-03-22T00:51:26;101650.56;;;19.23;56.57
41843;BME280;74160;52.530;13.188;2024-03-22T00:53:51;101661.22;;;19.23;56.65
41843;BME280;74160;52.530;13.188;2024-03-22T00:56:16;101648.72;;;19.24;56.69
41843;BME280;74160;52.530;13.188;2024-03-22T00:58:41;101651.19;;;19.17;56.74
41843;BME280;74160;52.530;13.188;2024-03-22T01:01:07;101640.72;;;19.24;56.59
41843;BME280;74160;52.530;13.188;2024-03-22T01:03:32;101641.34;;;19.17;56.74
41843;BME280;74160;52.530;13.188;2024-03-22T01:05:57;101638.88;;;19.24;56.61
41843;BME280;74160;52.530;13.188;2024-03-22T01:08:22;101634.03;;;19.19;56.80
41843;BME280;74160;52.530;13.188;2024-03-22T01:10:48;101633.22;;;19.19;56.83
41843;BME280;74160;52.530;13.188;2024-03-22T01:13:13;101621.69;;;19.18;56.76
41843;BME280;74160;52.530;13.188;2024-03-22T01:15:38;101618.34;;;19.16;56.85
41843;BME280;74160;52.530;13.188;2024-03-22T01:18:04;101622.69;;;19.17;56.86
41843;BME280;74160;52.530;13.188;2024-03-22T01:20:29;101617.91;;;19.21;56.70
41843;BME280;74160;52.530;13.188;2024-03-22T01:22:54;101629.88;;;19.17;56.80
41843;BME280;74160;52.530;13.188;2024-03-22T01:25:20;101633.50;;;19.16;56.76
41843;BME280;74160;52.530;13.188;2024-03-22T01:27:45;101618.19;;;19.18;56.68
41843;BME280;74160;52.530;13.188;2024-03-22T01:30:10;101617.00;;;19.12;57.02
41843;BME280;74160;52.530;13.188;2024-03-22T01:32:36;101611.91;;;19.19;56.65
41843;BME280;74160;52.530;13.188;2024-03-22T01:35:01;101616.22;;;19.20;56.78
41843;BME280;74160;52.530;13.188;2024-03-22T01:37:27;101608.56;;;19.17;56.81
41843;BME280;74160;52.530;13.188;2024-03-22T01:39:52;101602.41;;;19.25;56.56
41843;BME280;74160;52.530;13.188;2024-03-22T01:42:17;101592.59;;;19.25;56.57
41843;BME280;74160;52.530;13.188;2024-03-22T01:44:42;101597.72;;;19.18;56.73
41843;BME280;74160;52.530;13.188;2024-03-22T01:47:08;101602.06;;;19.19;56.70
41843;BME280;74160;52.530;13.188;2024-03-22T01:49:33;101608.22;;;19.20;56.74
41843;BME280;74160;52.530;13.188;2024-03-22T01:51:59;101602.06;;;19.19;56.81
41843;BME280;74160;52.530;13.188;2024-03-22T01:54:24;101603.91;;;19.19;56.76
41843;BME280;74160;52.530;13.188;2024-03-22T01:56:49;101597.03;;;19.16;56.84
41843;BME280;74160;52.530;13.188;2024-03-22T01:59:14;101594.38;;;19.16;56.81
41843;BME280;74160;52.530;13.188;2024-03-22T02:01:40;101583.72;;;19.16;56.76
41843;BME280;74160;52.530;13.188;2024-03-22T02:04:06;101586.38;;;19.16;56.85
41843;BME280;74160;52.530;13.188;2024-03-22T02:06:31;101586.22;;;19.18;56.72
41843;BME280;74160;52.530;13.188;2024-03-22T02:08:57;101588.09;;;19.26;56.53
41843;BME280;74160;52.530;13.188;2024-03-22T02:11:22;101586.56;;;19.15;56.76
41843;BME280;74160;52.530;13.188;2024-03-22T02:13:48;101573.38;;;19.13;56.81
41843;BME280;74160;52.530;13.188;2024-03-22T02:16:13;101567.47;;;19.28;56.40
41843;BME280;74160;52.530;13.188;2024-03-22T02:18:38;101571.44;;;19.24;56.55
41843;BME280;74160;52.530;13.188;2024-03-22T02:21:04;101560.59;;;19.17;56.74
41843;BME280;74160;52.530;13.188;2024-03-22T02:23:32;101554.72;;;19.13;56.76
41843;BME280;74160;52.530;13.188;2024-03-22T02:25:57;101548.44;;;19.23;56.59
41843;BME280;74160;52.530;13.188;2024-03-22T02:28:23;101549.44;;;19.21;56.67
41843;BME280;74160;52.530;13.188;2024-03-22T02:30:48;101543.72;;;19.16;56.75
41843;BME280;74160;52.530;13.188;2024-03-22T02:33:13;101540.91;;;19.18;56.62
41843;BME280;74160;52.530;13.188;2024-03-22T02:35:38;101537.94;;;19.21;56.54
41843;BME280;74160;52.530;13.188;2024-03-22T02:38:04;101533.25;;;19.15;56.72
41843;BME280;74160;52.530;13.188;2024-03-22T02:40:29;101536.94;;;19.22;56.74
41843;BME280;74160;52.530;13.188;2024-03-22T02:42:54;101533.25;;;19.15;56.74
41843;BME280;74160;52.530;13.188;2024-03-22T02:45:19;101535.06;;;19.14;56.72
41843;BME280;74160;52.530;13.188;2024-03-22T02:47:45;101528.91;;;19.14;56.82
41843;BME280;74160;52.530;13.188;2024-03-22T02:50:10;101520.63;;;19.17;56.80
41843;BME280;74160;52.530;13.188;2024-03-22T02:52:35;101524.25;;;19.16;56.69
41843;BME280;74160;52.530;13.188;2024-03-22T02:55:00;101517.63;;;19.20;56.59
41843;BME280;74160;52.530;13.188;2024-03-22T02:57:25;101511.31;;;19.21;56.72
41843;BME280;74160;52.530;13.188;2024-03-22T02:59:51;101512.09;;;19.13;56.77
41843;BME280;74160;52.530;13.188;2024-03-22T03:02:16;101508.78;;;19.19;56.65
41843;BME280;74160;52.530;13.188;2024-03-22T03:04:41;101503.63;;;19.18;56.58
41843;BME280;74160;52.530;13.188;2024-03-22T03:07:06;101498.44;;;19.16;56.71
41843;BME280;74160;52.530;13.188;2024-03-22T03:09:32;101498.28;;;19.18;56.63
41843;BME280;74160;52.530;13.188;2024-03-22T03:11:57;101489.94;;;19.13;56.74
41843;BME280;74160;52.530;13.188;2024-03-22T03:14:22;101483.75;;;19.12;56.87
41843;BME280;74160;52.530;13.188;2024-03-22T03:16:48;101484.13;;;19.17;56.71
41843;BME280;74160;52.530;13.188;2024-03-22T03:19:13;101490.63;;;19.15;56.70
41843;BME280;74160;52.530;13.188;2024-03-22T03:21:38;101478.81;;;19.17;56.67
41843;BME280;74160;52.530;13.188;2024-03-22T03:24:03;101468.28;;;19.16;56.63
41843;BME280;74160;52.530;13.188;2024-03-22T03:26:29;101451.97;;;19.11;56.88
41843;BME280;74160;52.530;13.188;2024-03-22T03:28:54;101439.00;;;19.16;56.67
41843;BME280;74160;52.530;13.188;2024-03-22T03:31:20;101439.16;;;19.14;56.77
41843;BME280;74160;52.530;13.188;2024-03-22T03:33:46;101445.16;;;19.16;56.81
41843;BME280;74160;52.530;13.188;2024-03-22T03:36:11;101434.19;;;19.19;56.63
41843;BME280;74160;52.530;13.188;2024-03-22T03:38:36;101435.00;;;19.20;56.58
41843;BME280;74160;52.530;13.188;2024-03-22T03:41:02;101438.69;;;19.19;56.60
41843;BME280;74160;52.530;13.188;2024-03-22T03:43:28;101435.66;;;19.14;56.69
41843;BME280;74160;52.530;13.188;2024-03-22T03:45:53;101434.81;;;19.13;56.77
41843;BME280;74160;52.530;13.188;2024-03-22T03:48:19;101424.16;;;19.13;56.80
41843;BME280;74160;52.530;13.188;2024-03-22T03:50:50;101410.84;;;19.13;56.78
41843;BME280;74160;52.530;13.188;2024-03-22T03:53:15;101411.19;;;19.18;56.65
41843;BME280;74160;52.530;13.188;2024-03-22T03:55:41;101411.50;;;19.15;56.65
41843;BME280;74160;52.530;13.188;2024-03-22T03:58:06;101408.69;;;19.17;56.59
41843;BME280;74160;52.530;13.188;2024-03-22T04:00:32;101403.84;;;19.12;56.70
41843;BME280;74160;52.530;13.188;2024-03-22T04:02:57;101402.69;;;19.15;56.62
41843;BME280;74160;52.530;13.188;2024-03-22T04:05:22;101387.69;;;19.14;56.72
41843;BME280;74160;52.530;13.188;2024-03-22T04:07:47;101388.50;;;19.14;56.69
41843;BME280;74160;52.530;13.188;2024-03-22T04:10:13;101386.88;;;19.13;56.77
41843;BME280;74160;52.530;13.188;2024-03-22T04:12:38;101392.50;;;19.10;56.80
41843;BME280;74160;52.530;13.188;2024-03-22T04:15:03;101391.38;;;19.21;56.60
41843;BME280;74160;52.530;13.188;2024-03-22T04:17:28;101385.53;;;19.17;56.65
41843;BME280;74160;52.530;13.188;2024-03-22T04:19:54;101376.88;;;19.15;56.75
41843;BME280;74160;52.530;13.188;2024-03-22T04:22:19;101369.88;;;19.14;56.65
41843;BME280;74160;52.530;13.188;2024-03-22T04:24:44;101373.19;;;19.16;56.73
41843;BME280;74160;52.530;13.188;2024-03-22T04:27:10;101369.19;;;19.12;56.70
41843;BME280;74160;52.530;13.188;2024-03-22T04:29:35;101371.69;;;19.14;56.73
41843;BME280;74160;52.530;13.188;2024-03-22T04:32:00;101372.38;;;19.16;56.64
41843;BME280;74160;52.530;13.188;2024-03-22T04:34:25;101371.69;;;19.14;56.73
41843;BME280;74160;52.530;13.188;2024-03-22T04:36:51;101363.41;;;19.17;56.75
41843;BME280;74160;52.530;13.188;2024-03-22T04:39:19;101366.22;;;19.15;56.63
41843;BME280;74160;52.530;13.188;2024-03-22T04:41:44;101357.72;;;19.20;56.53
41843;BME280;74160;52.530;13.188;2024-03-22T04:44:10;101348.41;;;19.24;56.54
41843;BME280;74160;52.530;13.188;2024-03-22T04:46:35;101350.91;;;19.17;56.60
41843;BME280;74160;52.530;13.188;2024-03-22T04:49:00;101344.75;;;19.17;56.58
41843;BME280;74160;52.530;13.188;2024-03-22T04:51:25;101339.22;;;19.18;56.55
41843;BME280;74160;52.530;13.188;2024-03-22T04:53:51;101342.09;;;19.17;56.68
41843;BME280;74160;52.530;13.188;2024-03-22T04:56:16;101348.25;;;19.17;56.65
41843;BME280;74160;52.530;13.188;2024-03-22T04:58:41;101339.41;;;19.17;56.55
41843;BME280;74160;52.530;13.188;2024-03-22T05:01:06;101335.41;;;19.13;56.62
41843;BME280;74160;52.530;13.188;2024-03-22T05:03:32;101333.91;;;19.18;56.65
41843;BME280;74160;52.530;13.188;2024-03-22T05:05:57;101331.56;;;19.15;56.65
41843;BME280;74160;52.530;13.188;2024-03-22T05:08:23;101335.22;;;19.14;56.74
41843;BME280;74160;52.530;13.188;2024-03-22T05:10:48;101338.06;;;19.13;56.73
41843;BME280;74160;52.530;13.188;2024-03-22T05:13:13;101331.06;;;19.12;56.78
41843;BME280;74160;52.530;13.188;2024-03-22T05:15:39;101336.25;;;19.13;56.69
41843;BME280;74160;52.530;13.188;2024-03-22T05:18:04;101331.91;;;19.12;56.77
41843;BME280;74160;52.530;13.188;2024-03-22T05:20:29;101328.25;;;19.13;56.63
41843;BME280;74160;52.530;13.188;2024-03-22T05:22:55;101325.44;;;19.15;56.69
41843;BME280;74160;52.530;13.188;2024-03-22T05:25:20;101323.06;;;19.12;56.81
41843;BME280;74160;52.530;13.188;2024-03-22T05:27:45;101313.09;;;19.14;56.80
41843;BME280;74160;52.530;13.188;2024-03-22T05:30:11;101307.91;;;19.12;56.76
41843;BME280;74160;52.530;13.188;2024-03-22T05:32:36;101310.56;;;19.12;56.76
41843;BME280;74160;52.530;13.188;2024-03-22T05:35:01;101308.78;;;19.13;56.80
41843;BME280;74160;52.530;13.188;2024-03-22T05:37:27;101304.94;;;19.15;56.72
41843;BME280;74160;52.530;13.188;2024-03-22T05:39:52;101308.09;;;19.19;56.68
41843;BME280;74160;52.530;13.188;2024-03-22T05:42:17;101299.78;;;19.22;56.45
41843;BME280;74160;52.530;13.188;2024-03-22T05:44:43;101295.25;;;19.14;56.62
41843;BME280;74160;52.530;13.188;2024-03-22T05:47:08;101286.13;;;19.17;56.69
41843;BME280;74160;52.530;13.188;2024-03-22T05:49:33;101284.28;;;19.26;56.48
41843;BME280;74160;52.530;13.188;2024-03-22T05:51:59;101286.78;;;19.19;56.55
41843;BME280;74160;52.530;13.188;2024-03-22T05:54:24;101278.78;;;19.19;56.55
41843;BME280;74160;52.530;13.188;2024-03-22T05:56:50;101275.78;;;19.22;56.51
41843;BME280;74160;52.530;13.188;2024-03-22T05:59:15;101272.13;;;19.15;56.65
41843;BME280;74160;52.530;13.188;2024-03-22T06:01:40;101268.81;;;19.13;56.79
41843;BME280;74160;52.530;13.188;2024-03-22T06:04:05;101259.63;;;19.24;56.46
41843;BME280;74160;52.530;13.188;2024-03-22T06:06:34;101266.13;;;19.13;56.87
41843;BME280;74160;52.530;13.188;2024-03-22T06:09:00;101265.47;;;19.11;57.01
41843;BME280;74160;52.530;13.188;2024-03-22T06:11:28;101265.63;;;19.17;56.88
41843;BME280;74160;52.530;13.188;2024-03-22T06:13:53;101257.13;;;19.14;56.75
41843;BME280;74160;52.530;13.188;2024-03-22T06:16:18;101246.81;;;19.19;56.59
41843;BME280;74160;52.530;13.188;2024-03-22T06:18:44;101245.97;;;19.18;56.69
41843;BME280;74160;52.530;13.188;2024-03-22T06:21:09;101245.31;;;19.16;56.70
41843;BME280;74160;52.530;13.188;2024-03-22T06:23:34;101237.50;;;19.23;56.55
41843;BME280;74160;52.530;13.188;2024-03-22T06:26:00;101239.66;;;19.19;56.80
41843;BME280;74160;52.530;13.188;2024-03-22T06:28:26;101241.97;;;19.14;56.78
41843;BME280;74160;52.530;13.188;2024-03-22T06:30:51;101240.16;;;19.15;56.95
41843;BME280;74160;52.530;13.188;2024-03-22T06:33:17;101237.81;;;19.20;56.66
41843;BME280;74160;52.530;13.188;2024-03-22T06:35:42;101238.16;;;19.17;56.84
41843;BME280;74160;52.530;13.188;2024-03-22T06:38:07;101235.00;;;19.13;56.97
41843;BME280;74160;52.530;13.188;2024-03-22T06:40:33;101230.66;;;19.12;57.08
41843;BME280;74160;52.530;13.188;2024-03-22T06:42:58;101239.16;;;19.24;56.57
41843;BME280;74160;52.530;13.188;2024-03-22T06:45:23;101229.97;;;19.18;56.83
41843;BME280;74160;52.530;13.188;2024-03-22T06:47:48;101220.50;;;19.16;56.82
41843;BME280;74160;52.530;13.188;2024-03-22T06:50:14;101228.50;;;19.16;56.88
41843;BME280;74160;52.530;13.188;2024-03-22T06:52:39;101226.84;;;19.15;56.95
41843;BME280;74160;52.530;13.188;2024-03-22T06:55:04;101223.81;;;19.18;56.89
41843;BME280;74160;52.530;13.188;2024-03-22T06:57:30;101220.50;;;19.16;56.84
41843;BME280;74160;52.530;13.188;2024-03-22T06:59:55;101216.50;;;19.20;56.77
41843;BME280;74160;52.530;13.188;2024-03-22T07:02:20;101213.00;;;19.19;56.80
41843;BME280;74160;52.530;13.188;2024-03-22T07:04:46;101219.97;;;19.20;56.74
41843;BME280;74160;52.530;13.188;2024-03-22T07:07:11;101217.31;;;19.12;56.97
41843;BME280;74160;52.530;13.188;2024-03-22T07:09:37;101212.00;;;19.12;57.01
41843;BME280;74160;52.530;13.188;2024-03-22T07:12:02;101211.16;;;19.28;56.61
41843;BME280;74160;52.530;13.188;2024-03-22T07:14:27;101213.00;;;19.19;56.74
41843;BME280;74160;52.530;13.188;2024-03-22T07:16:53;101209.16;;;19.14;56.90
41843;BME280;74160;52.530;13.188;2024-03-22T07:19:21;101206.50;;;19.22;56.62
41843;BME280;74160;52.530;13.188;2024-03-22T07:21:46;101213.00;;;19.19;56.94
41843;BME280;74160;52.530;13.188;2024-03-22T07:24:12;101209.31;;;19.20;56.85
41843;BME280;74160;52.530;13.188;2024-03-22T07:26:37;101212.34;;;19.17;56.83
41843;BME280;74160;52.530;13.188;2024-03-22T07:29:02;101205.19;;;19.18;56.92
41843;BME280;74160;52.530;13.188;2024-03-22T07:31:27;101207.53;;;19.21;56.71
41843;BME280;74160;52.530;13.188;2024-03-22T07:33:53;101209.84;;;19.24;56.68
41843;BME280;74160;52.530;13.188;2024-03-22T07:36:18;101199.53;;;19.21;56.64
41843;BME280;74160;52.530;13.188;2024-03-22T07:38:44;101210.84;;;19.23;56.65
41843;BME280;74160;52.530;13.188;2024-03-22T07:41:09;101205.53;;;19.15;56.92
41843;BME280;74160;52.530;13.188;2024-03-22T07:43:34;101200.50;;;19.20;56.83
41843;BME280;74160;52.530;13.188;2024-03-22T07:45:59;101203.19;;;19.20;56.77
41843;BME280;74160;52.530;13.188;2024-03-22T07:48:25;101201.84;;;19.24;56.71
41843;BME280;74160;52.530;13.188;2024-03-22T07:50:59;101196.66;;;19.23;56.65
41843;BME280;74160;52.530;13.188;2024-03-22T07:53:25;101198.19;;;19.17;57.09
41843;BME280;74160;52.530;13.188;2024-03-22T07:55:50;101191.34;;;19.23;56.70
41843;BME280;74160;52.530;13.188;2024-03-22T07:58:15;101182.69;;;19.20;56.88
41843;BME280;74160;52.530;13.188;2024-03-22T08:00:40;101181.19;;;19.26;56.64
41843;BME280;74160;52.530;13.188;2024-03-22T08:03:05;101185.19;;;19.22;56.80
41843;BME280;74160;52.530;13.188;2024-03-22T08:05:31;101176.88;;;19.17;56.86
41843;BME280;74160;52.530;13.188;2024-03-22T08:07:56;101184.34;;;19.21;56.81
41843;BME280;74160;52.530;13.188;2024-03-22T08:10:21;101174.38;;;19.15;57.02
41843;BME280;74160;52.530;13.188;2024-03-22T08:12:46;101177.88;;;19.16;57.03
41843;BME280;74160;52.530;13.188;2024-03-22T08:15:12;101176.03;;;19.16;56.96
41843;BME280;74160;52.530;13.188;2024-03-22T08:17:37;101173.19;;;19.26;56.50
41843;BME280;74160;52.530;13.188;2024-03-22T08:20:02;101179.03;;;19.21;56.76
41843;BME280;74160;52.530;13.188;2024-03-22T08:22:28;101168.88;;;19.17;56.97
41843;BME280;74160;52.530;13.188;2024-03-22T08:24:53;101163.06;;;19.13;57.07
41843;BME280;74160;52.530;13.188;2024-03-22T08:27:21;101164.53;;;19.16;56.98
41843;BME280;74160;52.530;13.188;2024-03-22T08:29:46;101155.72;;;19.15;57.05
41843;BME280;74160;52.530;13.188;2024-03-22T08:32:11;101150.41;;;19.15;56.99
41843;BME280;74160;52.530;13.188;2024-03-22T08:34:36;101151.06;;;19.17;56.84
41843;BME280;74160;52.530;13.188;2024-03-22T08:37:01;101134.72;;;19.12;57.01
41843;BME280;74160;52.530;13.188;2024-03-22T08:39:28;101132.41;;;19.26;56.68
41843;BME280;74160;52.530;13.188;2024-03-22T08:41:54;101142.72;;;19.20;56.78
41843;BME280;74160;52.530;13.188;2024-03-22T08:44:20;101136.91;;;19.17;56.97
41843;BME280;74160;52.530;13.188;2024-03-22T08:46:45;101129.91;;;19.16;56.71
41843;BME280;74160;52.530;13.188;2024-03-22T08:49:11;101122.56;;;19.18;56.92
41843;BME280;74160;52.530;13.188;2024-03-22T08:51:37;101115.41;;;19.18;56.93
41843;BME280;74160;52.530;13.188;2024-03-22T08:54:02;101104.59;;;19.20;56.87
41843;BME280;74160;52.530;13.188;2024-03-22T08:56:28;101105.41;;;19.20;56.75
41843;BME280;74160;52.530;13.188;2024-03-22T08:58:54;101107.25;;;19.20;56.81
41843;BME280;74160;52.530;13.188;2024-03-22T09:01:20;101112.75;;;19.18;56.94
41843;BME280;74160;52.530;13.188;2024-03-22T09:03:45;101105.59;;;19.19;56.82
41843;BME280;74160;52.530;13.188;2024-03-22T09:06:11;101108.25;;;19.19;56.88
41843;BME280;74160;52.530;13.188;2024-03-22T09:08:37;101099.59;;;19.17;56.95
41843;BME280;74160;52.530;13.188;2024-03-22T09:11:02;101100.28;;;19.19;56.88
41843;BME280;74160;52.530;13.188;2024-03-22T09:13:28;101095.75;;;19.19;56.88
41843;BME280;74160;52.530;13.188;2024-03-22T09:15:59;101089.41;;;19.20;56.88
41843;BME280;74160;52.530;13.188;2024-03-22T09:18:25;101076.63;;;19.16;56.92
41843;BME280;74160;52.530;13.188;2024-03-22T09:20:50;101083.09;;;19.21;56.86
41843;BME280;74160;52.530;13.188;2024-03-22T09:23:15;101078.44;;;19.24;56.79
41843;BME280;74160;52.530;13.188;2024-03-22T09:25:40;101080.59;;;19.20;56.89
41843;BME280;74160;52.530;13.188;2024-03-22T09:28:06;101088.59;;;19.20;56.85
41843;BME280;74160;52.530;13.188;2024-03-22T09:30:31;101078.09;;;19.18;56.87
41843;BME280;74160;52.530;13.188;2024-03-22T09:32:56;101077.28;;;19.18;56.96
41843;BME280;74160;52.530;13.188;2024-03-22T09:35:22;101070.94;;;19.27;56.76
41843;BME280;74160;52.530;13.188;2024-03-22T09:37:48;101066.63;;;19.18;56.93
41843;BME280;74160;52.530;13.188;2024-03-22T09:40:13;101070.59;;;19.22;56.85
41843;BME280;74160;52.530;13.188;2024-03-22T09:42:38;101070.75;;;19.20;56.93
41843;BME280;74160;52.530;13.188;2024-03-22T09:45:09;101065.09;;;19.24;56.86
41843;BME280;74160;52.530;13.188;2024-03-22T09:47:35;101072.94;;;19.25;56.76
41843;BME280;74160;52.530;13.188;2024-03-22T09:50:01;101072.97;;;19.17;57.01
41843;BME280;74160;52.530;13.188;2024-03-22T09:52:28;101071.94;;;19.26;56.61
41843;BME280;74160;52.530;13.188;2024-03-22T09:54:53;101066.28;;;19.21;56.80
41843;BME280;74160;52.530;13.188;2024-03-22T09:57:18;101060.31;;;19.19;56.85
41843;BME280;74160;52.530;13.188;2024-03-22T09:59:46;101059.97;;;19.14;57.06
41843;BME280;74160;52.530;13.188;2024-03-22T10:02:12;101069.28;;;19.18;56.97
41843;BME280;74160;52.530;13.188;2024-03-22T10:04:37;101058.31;;;19.21;56.98
41843;BME280;74160;52.530;13.188;2024-03-22T10:07:03;101056.31;;;19.15;56.98
41843;BME280;74160;52.530;13.188;2024-03-22T10:09:29;101049.66;;;19.19;56.94
41843;BME280;74160;52.530;13.188;2024-03-22T10:11:57;101053.97;;;19.20;56.80
41843;BME280;74160;52.530;13.188;2024-03-22T10:14:23;101041.94;;;19.24;56.84
41843;BME280;74160;52.530;13.188;2024-03-22T10:16:51;101037.63;;;19.23;56.80
41843;BME280;74160;52.530;13.188;2024-03-22T10:19:20;101036.31;;;19.19;56.88
41843;BME280;74160;52.530;13.188;2024-03-22T10:21:46;101029.31;;;19.18;56.97
41843;BME280;74160;52.530;13.188;2024-03-22T10:24:12;101034.47;;;19.19;56.94
41843;BME280;74160;52.530;13.188;2024-03-22T10:26:37;101018.50;;;19.19;56.94
41843;BME280;74160;52.530;13.188;2024-03-22T10:29:06;101024.81;;;19.18;57.01
41843;BME280;74160;52.530;13.188;2024-03-22T10:31:31;101016.13;;;19.25;56.76
41843;BME280;74160;52.530;13.188;2024-03-22T10:33:56;101015.97;;;19.26;56.77
41843;BME280;74160;52.530;13.188;2024-03-22T10:36:23;101019.66;;;19.25;56.84
41843;BME280;74160;52.530;13.188;2024-03-22T10:38:49;101022.66;;;19.22;56.86
41843;BME280;74160;52.530;13.188;2024-03-22T10:41:16;101021.16;;;19.19;57.00
41843;BME280;74160;52.530;13.188;2024-03-22T10:43:41;101019.66;;;19.25;56.84
41843;BME280;74160;52.530;13.188;2024-03-22T10:46:07;101009.81;;;19.26;56.76
41843;BME280;74160;52.530;13.188;2024-03-22T10:48:33;101006.81;;;19.20;56.87
41843;BME280;74160;52.530;13.188;2024-03-22T10:50:59;100999.31;;;19.24;56.91
41843;BME280;74160;52.530;13.188;2024-03-22T10:53:24;100998.31;;;19.25;56.75
41843;BME280;74160;52.530;13.188;2024-03-22T10:55:50;101001.16;;;19.24;56.88
41843;BME280;74160;52.530;13.188;2024-03-22T10:58:22;101011.31;;;19.20;57.28
41843;BME280;74160;52.530;13.188;2024-03-22T11:00:50;101003.69;;;19.17;57.18
41843;BME280;74160;52.530;13.188;2024-03-22T11:03:16;101003.00;;;19.23;56.93
41843;BME280;74160;52.530;13.188;2024-03-22T11:05:47;101000.31;;;19.31;56.65
41843;BME280;74160;52.530;13.188;2024-03-22T11:08:12;100993.81;;;19.26;56.92
41843;BME280;74160;52.530;13.188;2024-03-22T11:10:39;100991.00;;;19.27;56.75
41843;BME280;74160;52.530;13.188;2024-03-22T11:13:05;100986.66;;;19.26;56.84
41843;BME280;74160;52.530;13.188;2024-03-22T11:15:31;100997.47;;;19.25;57.06
41843;BME280;74160;52.530;13.188;2024-03-22T11:17:58;100983.50;;;19.23;57.03
41843;BME280;74160;52.530;13.188;2024-03-22T11:20:24;100987.47;;;19.27;56.98
41843;BME280;74160;52.530;13.188;2024-03-22T11:22:51;100993.81;;;19.26;56.88
41843;BME280;74160;52.530;13.188;2024-03-22T11:25:16;100984.50;;;19.21;56.98
41843;BME280;74160;52.530;13.188;2024-03-22T11:27:41;100989.19;;;19.19;57.12
41843;BME280;74160;52.530;13.188;2024-03-22T11:30:07;100989.19;;;19.19;57.10
41843;BME280;74160;52.530;13.188;2024-03-22T11:32:33;100979.84;;;19.24;56.98
41843;BME280;74160;52.530;13.188;2024-03-22T11:35:00;100975.16;;;19.26;56.88
41843;BME280;74160;52.530;13.188;2024-03-22T11:37:25;100973.00;;;19.29;56.85
41843;BME280;74160;52.530;13.188;2024-03-22T11:39:51;100959.84;;;19.28;56.82
41843;BME280;74160;52.530;13.188;2024-03-22T11:42:16;100967.34;;;19.24;56.99
41843;BME280;74160;52.530;13.188;2024-03-22T11:44:42;100964.34;;;19.27;56.87
41843;BME280;74160;52.530;13.188;2024-03-22T11:47:07;100962.50;;;19.28;56.80
41843;BME280;74160;52.530;13.188;2024-03-22T11:49:32;100962.34;;;19.29;56.68
41843;BME280;74160;52.530;13.188;2024-03-22T11:51:58;100959.00;;;19.27;56.72
41843;BME280;74160;52.530;13.188;2024-03-22T11:54:25;100954.84;;;19.25;56.92
41843;BME280;74160;52.530;13.188;2024-03-22T11:56:50;100951.19;;;19.26;56.76
41843;BME280;74160;52.530;13.188;2024-03-22T11:59:18;100947.03;;;19.23;56.98
41843;BME280;74160;52.530;13.188;2024-03-22T12:01:44;100944.72;;;19.20;56.93
41843;BME280;74160;52.530;13.188;2024-03-22T12:04:09;100941.38;;;19.18;57.07
41843;BME280;74160;52.530;13.188;2024-03-22T12:06:40;100935.72;;;19.21;56.92
41843;BME280;74160;52.530;13.188;2024-03-22T12:09:06;100935.53;;;19.23;56.98
41843;BME280;74160;52.530;13.188;2024-03-22T12:11:32;100928.03;;;19.26;56.82
41843;BME280;74160;52.530;13.188;2024-03-22T12:13:57;100927.38;;;19.24;57.02
41843;BME280;74160;52.530;13.188;2024-03-22T12:16:22;100919.53;;;19.23;56.89
41843;BME280;74160;52.530;13.188;2024-03-22T12:18:47;100923.34;;;19.28;56.89
41843;BME280;74160;52.530;13.188;2024-03-22T12:21:12;100915.72;;;19.25;56.76
41843;BME280;74160;52.530;13.188;2024-03-22T12:23:38;100913.06;;;19.25;56.83
41843;BME280;74160;52.530;13.188;2024-03-22T12:26:03;100920.91;;;19.18;57.16
41843;BME280;74160;52.530;13.188;2024-03-22T12:28:28;100914.22;;;19.23;56.99
41843;BME280;74160;52.530;13.188;2024-03-22T12:30:53;100913.56;;;19.20;57.04